Time;durP1;ratioP1;P1;durP2;ratioP2;P2;SDS_P1;SDS_P2;PMS_P1;PMS_P2;Temp;Humidity;BMP_temperature;BMP_pressure;BME280_temperature;BME280_humidity;BME280_pressure;Samples;Min_cycle;Max_cycle;Signal;HPM_P1;HPM_P2
2021/03/06 00:00:13;;;;;;;15.40;11.70;;;;;;;;;;6275750;22;21213;-93
2021/03/06 00:02:39;;;;;;;15.63;11.30;;;;;;;;;;6277216;22;20405;-93
2021/03/06 00:05:06;;;;;;;16.27;11.40;;;;;;;;;;6279189;22;20409;-93
2021/03/06 00:07:32;;;;;;;16.87;11.83;;;;;;;;;;6280536;22;20412;-93
2021/03/06 00:09:59;;;;;;;19.20;13.53;;;;;;;;;;6285497;22;20448;-93
2021/03/06 00:12:25;;;;;;;17.47;11.77;;;;;;;;;;6286524;22;20413;-93
2021/03/06 00:14:51;;;;;;;14.63;10.80;;;;;;;;;;6284429;22;20420;-93
2021/03/06 00:17:18;;;;;;;14.57;11.50;;;;;;;;;;6280381;22;20405;-94
2021/03/06 00:19:44;;;;;;;15.97;11.60;;;;;;;;;;6285806;22;20420;-94
2021/03/06 00:22:10;;;;;;;15.70;11.43;;;;;;;;;;6286543;22;20405;-93
2021/03/06 00:24:36;;;;;;;16.80;12.20;;;;;;;;;;6287132;22;20634;-94
2021/03/06 00:27:02;;;;;;;17.67;12.47;;;;;;;;;;6285008;22;20419;-94
2021/03/06 00:29:28;;;;;;;15.17;11.53;;;;;;;;;;6282585;22;20453;-95
2021/03/06 00:31:54;;;;;;;16.80;11.63;;;;;;;;;;6281789;22;20439;-93
2021/03/06 00:34:21;;;;;;;18.07;11.70;;;;;;;;;;6283325;22;20760;-94
2021/03/06 00:36:47;;;;;;;15.05;11.38;;;;;;;;;;6280576;22;20457;-94
2021/03/06 00:39:13;;;;;;;15.60;11.77;;;;;;;;;;6282721;22;20193;-93
2021/03/06 00:41:39;;;;;;;17.98;12.93;;;;;;;;;;6283520;22;20409;-94
2021/03/06 00:44:05;;;;;;;15.35;11.55;;;;;;;;;;6285458;22;20172;-94
2021/03/06 00:46:31;;;;;;;18.47;12.70;;;;;;;;;;6284180;22;20183;-95
2021/03/06 00:48:57;;;;;;;20.93;11.90;;;;;;;;;;6285239;22;20409;-95
2021/03/06 00:51:24;;;;;;;16.42;12.13;;;;;;;;;;6283835;22;20452;-95
2021/03/06 00:53:50;;;;;;;17.00;12.18;;;;;;;;;;6287961;22;20235;-94
2021/03/06 00:56:16;;;;;;;16.65;11.60;;;;;;;;;;6292491;22;20180;-94
2021/03/06 00:58:42;;;;;;;15.33;11.03;;;;;;;;;;6289402;22;20220;-93
2021/03/06 01:01:09;;;;;;;14.10;11.45;;;;;;;;;;6285210;22;20417;-93
2021/03/06 01:03:35;;;;;;;15.95;10.27;;;;;;;;;;6285918;22;20184;-93
2021/03/06 01:06:01;;;;;;;15.90;10.88;;;;;;;;;;6286183;22;20187;-93
2021/03/06 01:08:28;;;;;;;14.50;10.80;;;;;;;;;;6287199;22;20175;-93
2021/03/06 01:10:55;;;;;;;15.15;11.15;;;;;;;;;;6289435;22;20208;-93
2021/03/06 01:13:22;;;;;;;16.58;11.05;;;;;;;;;;6288327;22;20175;-94
2021/03/06 01:15:48;;;;;;;13.83;9.97;;;;;;;;;;6288711;22;20176;-93
2021/03/06 01:18:14;;;;;;;15.60;11.15;;;;;;;;;;6285757;22;20621;-95
2021/03/06 01:20:40;;;;;;;13.93;10.90;;;;;;;;;;6284486;22;20174;-95
2021/03/06 01:23:06;;;;;;;15.17;11.17;;;;;;;;;;6282692;22;20414;-94
2021/03/06 01:25:33;;;;;;;15.70;9.93;;;;;;;;;;6284115;22;20423;-94
2021/03/06 01:27:59;;;;;;;13.93;10.27;;;;;;;;;;6282826;22;20413;-93
2021/03/06 01:30:25;;;;;;;14.20;10.07;;;;;;;;;;6287326;22;20452;-94
2021/03/06 01:32:51;;;;;;;13.00;10.30;;;;;;;;;;6288076;22;20457;-94
2021/03/06 01:35:19;;;;;;;17.50;10.40;;;;;;;;;;6287193;22;20408;-94
2021/03/06 01:37:45;;;;;;;19.17;10.67;;;;;;;;;;6285196;22;20409;-93
2021/03/06 01:40:12;;;;;;;15.70;10.20;;;;;;;;;;6287192;22;20469;-94
2021/03/06 01:42:39;;;;;;;15.00;10.90;;;;;;;;;;6286316;22;20409;-94
2021/03/06 01:45:06;;;;;;;15.20;10.82;;;;;;;;;;6288420;22;20403;-94
2021/03/06 01:47:33;;;;;;;15.13;11.43;;;;;;;;;;6288823;22;20177;-95
2021/03/06 01:49:59;;;;;;;14.20;10.97;;;;;;;;;;6287378;22;20451;-94
2021/03/06 01:52:25;;;;;;;14.43;11.20;;;;;;;;;;6288747;22;20417;-94
2021/03/06 01:54:52;;;;;;;15.37;11.57;;;;;;;;;;6286645;22;20417;-95
2021/03/06 01:57:18;;;;;;;15.87;11.47;;;;;;;;;;6288289;22;20441;-93
2021/03/06 01:59:45;;;;;;;17.00;11.17;;;;;;;;;;6287326;22;20472;-94
2021/03/06 02:02:11;;;;;;;14.00;11.50;;;;;;;;;;6288524;22;20409;-93
2021/03/06 02:04:38;;;;;;;16.95;11.93;;;;;;;;;;6287155;22;20181;-93
2021/03/06 02:07:04;;;;;;;19.30;12.27;;;;;;;;;;6262083;22;20186;-94
2021/03/06 02:09:30;;;;;;;16.42;11.07;;;;;;;;;;6285875;22;20453;-95
2021/03/06 02:11:59;;;;;;;20.57;13.90;;;;;;;;;;6286234;22;20176;-94
2021/03/06 02:14:39;;;;;;;18.80;12.20;;;;;;;;;;6285751;22;20449;-94
2021/03/06 02:17:10;;;;;;;19.77;12.43;;;;;;;;;;6288297;22;20412;-91
2021/03/06 02:19:46;;;;;;;13.80;10.15;;;;;;;;;;6287229;22;20179;-95
2021/03/06 02:22:17;;;;;;;15.45;11.07;;;;;;;;;;6288471;22;20542;-93
2021/03/06 02:24:49;;;;;;;15.87;11.27;;;;;;;;;;6287567;22;20175;-93
2021/03/06 02:27:21;;;;;;;16.52;11.93;;;;;;;;;;6288102;22;20404;-94
2021/03/06 02:29:53;;;;;;;18.73;11.70;;;;;;;;;;6286733;22;20487;-92
2021/03/06 02:32:23;;;;;;;13.63;10.50;;;;;;;;;;6287437;22;20197;-93
2021/03/06 02:34:51;;;;;;;12.88;9.77;;;;;;;;;;6287341;22;20420;-92
2021/03/06 02:37:19;;;;;;;13.93;10.57;;;;;;;;;;6288439;22;20176;-93
2021/03/06 02:39:46;;;;;;;14.40;10.40;;;;;;;;;;6286333;22;20178;-93
2021/03/06 02:42:16;;;;;;;13.77;9.48;;;;;;;;;;6286097;22;20416;-93
2021/03/06 02:44:42;;;;;;;15.02;9.85;;;;;;;;;;6286257;22;20185;-95
2021/03/06 02:47:09;;;;;;;13.93;9.95;;;;;;;;;;6284818;22;20178;-93
2021/03/06 02:49:35;;;;;;;15.50;10.65;;;;;;;;;;6287401;22;20197;-93
2021/03/06 02:52:01;;;;;;;12.88;10.25;;;;;;;;;;6286967;22;20231;-93
2021/03/06 02:54:27;;;;;;;15.45;9.93;;;;;;;;;;6287759;22;20181;-93
2021/03/06 02:56:54;;;;;;;13.00;10.00;;;;;;;;;;6286818;22;20179;-94
2021/03/06 02:59:28;;;;;;;16.20;9.63;;;;;;;;;;6288025;22;20181;-93
2021/03/06 03:01:58;;;;;;;16.35;9.85;;;;;;;;;;6286029;22;20609;-93
2021/03/06 03:04:28;;;;;;;11.95;9.20;;;;;;;;;;6288366;22;20175;-93
2021/03/06 03:06:56;;;;;;;13.60;9.55;;;;;;;;;;6290994;22;20189;-95
2021/03/06 03:09:25;;;;;;;13.77;9.32;;;;;;;;;;6287227;22;20206;-94
2021/03/06 03:11:54;;;;;;;10.52;8.75;;;;;;;;;;6286355;22;20188;-94
2021/03/06 03:14:25;;;;;;;16.27;10.88;;;;;;;;;;6288135;22;20180;-94
2021/03/06 03:16:52;;;;;;;18.83;9.98;;;;;;;;;;6287428;22;20176;-93
2021/03/06 03:19:24;;;;;;;15.10;10.48;;;;;;;;;;6288721;22;20238;-95
2021/03/06 03:21:52;;;;;;;15.35;10.00;;;;;;;;;;6284304;22;20202;-94
2021/03/06 03:24:20;;;;;;;14.10;10.60;;;;;;;;;;6285920;22;20178;-93
2021/03/06 03:26:47;;;;;;;15.85;10.30;;;;;;;;;;6284672;22;20228;-94
2021/03/06 03:29:14;;;;;;;15.05;10.15;;;;;;;;;;6287073;22;20206;-94
2021/03/06 03:31:43;;;;;;;14.88;10.00;;;;;;;;;;6286638;22;20235;-92
2021/03/06 03:34:10;;;;;;;14.43;10.10;;;;;;;;;;6287231;22;20182;-94
2021/03/06 03:36:36;;;;;;;17.20;11.43;;;;;;;;;;6287251;22;20176;-93
2021/03/06 03:39:03;;;;;;;15.02;11.13;;;;;;;;;;6285808;22;20211;-93
2021/03/06 03:41:30;;;;;;;21.33;13.02;;;;;;;;;;6287669;22;20203;-93
2021/03/06 03:43:56;;;;;;;27.73;13.20;;;;;;;;;;6286717;22;20724;-94
2021/03/06 03:46:22;;;;;;;18.00;12.38;;;;;;;;;;6286648;22;20674;-95
2021/03/06 03:48:49;;;;;;;21.65;14.27;;;;;;;;;;6285419;22;20181;-93
2021/03/06 03:51:15;;;;;;;20.73;13.98;;;;;;;;;;6286589;22;20198;-93
2021/03/06 03:53:43;;;;;;;24.55;15.05;;;;;;;;;;6284976;22;20180;-94
2021/03/06 03:56:10;;;;;;;18.55;12.63;;;;;;;;;;6287672;22;20181;-93
2021/03/06 03:58:36;;;;;;;19.10;13.30;;;;;;;;;;6286206;22;20258;-93
2021/03/06 04:01:02;;;;;;;20.00;13.10;;;;;;;;;;6287510;22;20271;-93
2021/03/06 04:03:28;;;;;;;20.48;13.98;;;;;;;;;;6286020;22;20412;-93
2021/03/06 04:05:54;;;;;;;19.17;13.43;;;;;;;;;;6287089;22;20190;-93
2021/03/06 04:08:20;;;;;;;20.40;12.95;;;;;;;;;;6285526;22;20179;-93
2021/03/06 04:10:46;;;;;;;19.33;12.33;;;;;;;;;;6286151;22;20203;-93
2021/03/06 04:13:13;;;;;;;22.33;14.10;;;;;;;;;;6285761;22;20403;-94
2021/03/06 04:15:39;;;;;;;20.80;14.15;;;;;;;;;;6286283;22;20414;-94
2021/03/06 04:18:06;;;;;;;17.55;12.90;;;;;;;;;;6286718;22;20177;-93
2021/03/06 04:20:32;;;;;;;21.17;12.20;;;;;;;;;;6285295;22;20182;-94
2021/03/06 04:22:58;;;;;;;20.35;12.90;;;;;;;;;;6285988;22;20889;-94
2021/03/06 04:25:24;;;;;;;19.10;13.23;;;;;;;;;;6285363;22;20645;-94
2021/03/06 04:27:50;;;;;;;20.30;14.50;;;;;;;;;;6286756;22;20187;-94
2021/03/06 04:30:18;;;;;;;19.70;12.85;;;;;;;;;;6284679;22;21031;-93
2021/03/06 04:32:44;;;;;;;20.15;12.50;;;;;;;;;;6259117;22;20176;-94
2021/03/06 04:35:11;;;;;;;22.60;15.60;;;;;;;;;;6284302;22;20180;-93
2021/03/06 04:37:37;;;;;;;24.60;15.73;;;;;;;;;;6285840;22;20418;-94
2021/03/06 04:40:04;;;;;;;22.52;15.82;;;;;;;;;;6284450;22;20640;-93
2021/03/06 04:42:30;;;;;;;22.27;15.75;;;;;;;;;;6285803;22;20175;-94
2021/03/06 04:44:56;;;;;;;19.55;14.80;;;;;;;;;;6285613;22;20197;-93
2021/03/06 04:47:23;;;;;;;21.63;15.23;;;;;;;;;;6286616;22;20181;-93
2021/03/06 04:49:49;;;;;;;22.27;15.07;;;;;;;;;;6285239;22;20935;-93
2021/03/06 04:52:15;;;;;;;22.20;14.52;;;;;;;;;;6287040;22;20180;-94
2021/03/06 04:54:41;;;;;;;22.40;15.52;;;;;;;;;;6286862;22;20176;-94
2021/03/06 04:57:08;;;;;;;18.20;13.48;;;;;;;;;;6284919;22;20181;-93
2021/03/06 04:59:34;;;;;;;20.67;13.65;;;;;;;;;;6287147;22;20207;-94
2021/03/06 05:02:00;;;;;;;21.67;14.38;;;;;;;;;;6285299;22;20182;-94
2021/03/06 05:04:27;;;;;;;22.10;13.75;;;;;;;;;;6287145;22;20180;-94
2021/03/06 05:06:53;;;;;;;22.45;14.32;;;;;;;;;;6285058;22;20171;-94
2021/03/06 05:09:19;;;;;;;22.65;14.00;;;;;;;;;;6286814;22;20659;-94
2021/03/06 05:11:45;;;;;;;22.77;14.80;;;;;;;;;;6285284;22;20203;-93
2021/03/06 05:14:11;;;;;;;27.13;17.15;;;;;;;;;;6286311;22;20439;-94
2021/03/06 05:16:37;;;;;;;21.50;14.67;;;;;;;;;;6285521;22;20180;-94
2021/03/06 05:19:03;;;;;;;19.25;14.30;;;;;;;;;;6292938;22;20396;-94
2021/03/06 05:21:30;;;;;;;20.10;13.13;;;;;;;;;;6286051;22;20184;-94
2021/03/06 05:23:56;;;;;;;19.58;13.88;;;;;;;;;;6286715;22;20178;-95
2021/03/06 05:26:22;;;;;;;19.88;13.10;;;;;;;;;;6285477;22;20191;-94
2021/03/06 05:28:49;;;;;;;17.95;12.68;;;;;;;;;;6286945;22;20191;-94
2021/03/06 05:31:15;;;;;;;17.15;13.00;;;;;;;;;;6257931;22;20209;-95
2021/03/06 05:33:41;;;;;;;19.60;11.60;;;;;;;;;;6285456;22;20498;-94
2021/03/06 05:36:07;;;;;;;15.77;11.97;;;;;;;;;;6284928;22;20418;-94
2021/03/06 05:38:34;;;;;;;16.88;12.27;;;;;;;;;;6286207;22;20405;-94
2021/03/06 05:41:00;;;;;;;19.10;12.40;;;;;;;;;;6287061;22;20181;-94
2021/03/06 05:43:26;;;;;;;16.40;12.82;;;;;;;;;;6285598;22;20409;-94
2021/03/06 05:45:52;;;;;;;19.63;12.98;;;;;;;;;;6287159;22;20181;-95
2021/03/06 05:48:19;;;;;;;22.57;14.73;;;;;;;;;;6285100;22;20182;-94
2021/03/06 05:50:45;;;;;;;24.50;16.17;;;;;;;;;;6285924;22;20455;-94
2021/03/06 05:53:13;;;;;;;19.20;14.07;;;;;;;;;;6285383;22;20203;-94
2021/03/06 05:55:42;;;;;;;23.30;12.55;;;;;;;;;;6286083;22;20417;-94
2021/03/06 05:58:08;;;;;;;19.00;14.13;;;;;;;;;;6283102;22;20200;-94
2021/03/06 06:00:34;;;;;;;19.40;13.80;;;;;;;;;;6285965;22;20493;-94
2021/03/06 06:03:01;;;;;;;19.42;12.50;;;;;;;;;;6284599;22;20925;-94
2021/03/06 06:05:27;;;;;;;15.43;12.10;;;;;;;;;;6285206;22;20178;-94
2021/03/06 06:07:54;;;;;;;16.80;12.90;;;;;;;;;;6284534;22;20506;-94
2021/03/06 06:10:22;;;;;;;17.23;13.47;;;;;;;;;;6284541;22;20448;-94
2021/03/06 06:12:49;;;;;;;20.77;13.93;;;;;;;;;;6282870;22;20412;-94
2021/03/06 06:15:16;;;;;;;18.80;13.90;;;;;;;;;;6282794;22;20985;-95
2021/03/06 06:17:42;;;;;;;36.40;24.33;;;;;;;;;;6284368;22;20771;-94
2021/03/06 06:20:08;;;;;;;46.60;24.50;;;;;;;;;;6285811;22;20409;-94
2021/03/06 06:22:34;;;;;;;36.50;25.40;;;;;;;;;;6287695;22;20412;-93
2021/03/06 06:25:01;;;;;;;38.80;25.60;;;;;;;;;;6285713;22;20426;-93
2021/03/06 06:27:28;;;;;;;38.83;26.57;;;;;;;;;;6286717;22;20407;-93
2021/03/06 06:29:58;;;;;;;38.27;26.13;;;;;;;;;;6286266;22;20444;-94
2021/03/06 06:32:25;;;;;;;36.80;26.20;;;;;;;;;;6288460;22;20429;-93
2021/03/06 06:34:58;;;;;;;39.47;26.80;;;;;;;;;;6286541;22;20405;-93
2021/03/06 06:37:24;;;;;;;42.30;28.07;;;;;;;;;;6288136;22;20408;-93
2021/03/06 06:39:50;;;;;;;49.43;31.07;;;;;;;;;;6288641;22;20413;-92
2021/03/06 06:42:17;;;;;;;43.23;30.90;;;;;;;;;;6286250;22;20408;-93
2021/03/06 06:44:53;;;;;;;49.60;30.67;;;;;;;;;;6286635;22;20420;-92
2021/03/06 06:47:20;;;;;;;52.67;33.20;;;;;;;;;;6286252;22;20412;-92
2021/03/06 06:49:47;;;;;;;45.40;31.17;;;;;;;;;;6285065;22;20454;-94
2021/03/06 06:52:14;;;;;;;47.43;31.53;;;;;;;;;;6285098;22;21041;-93
2021/03/06 06:54:40;;;;;;;45.97;29.90;;;;;;;;;;6284890;22;20910;-93
2021/03/06 06:57:10;;;;;;;43.83;31.73;;;;;;;;;;6288512;22;20415;-92
2021/03/06 06:59:36;;;;;;;46.20;32.00;;;;;;;;;;6283234;22;20401;-92
2021/03/06 07:02:06;;;;;;;33.40;23.80;;;;;;;;;;6277847;22;20405;-94
2021/03/06 07:04:43;;;;;;;36.90;25.30;;;;;;;;;;6282619;22;20408;-94
2021/03/06 07:07:13;;;;;;;31.20;22.60;;;;;;;;;;6283533;22;20405;-94
2021/03/06 07:09:54;;;;;;;30.60;18.13;;;;;;;;;;6285614;22;20420;-94
2021/03/06 07:12:20;;;;;;;22.73;15.60;;;;;;;;;;6286094;22;20416;-94
2021/03/06 07:14:46;;;;;;;21.17;15.40;;;;;;;;;;6286370;22;20416;-94
2021/03/06 07:17:12;;;;;;;26.87;19.20;;;;;;;;;;6283435;22;20931;-94
2021/03/06 07:19:41;;;;;;;37.13;20.77;;;;;;;;;;6258709;22;20406;-95
2021/03/06 07:22:08;;;;;;;32.07;20.40;;;;;;;;;;6283177;22;20409;-94
2021/03/06 07:24:34;;;;;;;42.77;22.47;;;;;;;;;;6289152;22;20409;-93
2021/03/06 07:27:00;;;;;;;47.07;24.07;;;;;;;;;;6284711;22;20757;-92
2021/03/06 07:29:28;;;;;;;35.87;25.17;;;;;;;;;;6286139;22;20401;-93
2021/03/06 07:31:55;;;;;;;34.00;19.57;;;;;;;;;;6283600;22;20448;-91
2021/03/06 07:34:22;;;;;;;33.33;17.73;;;;;;;;;;6286569;22;20409;-91
2021/03/06 07:36:48;;;;;;;22.33;14.27;;;;;;;;;;6286595;22;20413;-92
2021/03/06 07:39:16;;;;;;;23.83;14.53;;;;;;;;;;6287382;22;20421;-92
2021/03/06 07:41:44;;;;;;;23.93;16.00;;;;;;;;;;6288377;22;20420;-91
2021/03/06 07:44:12;;;;;;;19.30;14.23;;;;;;;;;;6288086;22;20409;-96
2021/03/06 07:46:38;;;;;;;21.63;15.60;;;;;;;;;;6282938;22;20473;-89
2021/03/06 07:49:10;;;;;;;28.93;17.97;;;;;;;;;;6285388;22;20409;-92
2021/03/06 07:51:37;;;;;;;30.03;16.10;;;;;;;;;;6287251;22;20445;-90
2021/03/06 07:54:04;;;;;;;23.43;13.53;;;;;;;;;;6286030;22;20409;-93
2021/03/06 07:56:31;;;;;;;17.43;12.00;;;;;;;;;;6285545;22;20412;-89
2021/03/06 07:58:57;;;;;;;24.00;11.87;;;;;;;;;;6283108;22;20409;-90
2021/03/06 08:01:24;;;;;;;19.87;9.67;;;;;;;;;;6284124;22;20405;-91
2021/03/06 08:03:50;;;;;;;18.30;11.80;;;;;;;;;;6282646;22;20413;-91
2021/03/06 08:06:18;;;;;;;15.50;10.47;;;;;;;;;;6283261;22;20451;-90
2021/03/06 08:08:54;;;;;;;15.00;9.77;;;;;;;;;;6283293;22;21124;-90
2021/03/06 08:11:20;;;;;;;13.87;8.80;;;;;;;;;;6284595;22;21000;-93
2021/03/06 08:13:48;;;;;;;10.80;9.07;;;;;;;;;;6284510;22;20466;-92
2021/03/06 08:16:33;;;;;;;11.47;7.77;;;;;;;;;;6287908;22;20409;-95
2021/03/06 08:18:59;;;;;;;9.33;7.77;;;;;;;;;;6285774;22;20401;-91
2021/03/06 08:21:26;;;;;;;8.57;6.67;;;;;;;;;;6286710;22;20416;-94
2021/03/06 08:24:18;;;;;;;6.50;5.80;;;;;;;;;;6288559;22;20412;-93
2021/03/06 08:26:51;;;;;;;9.83;6.67;;;;;;;;;;6285936;22;20902;-93
2021/03/06 08:29:34;;;;;;;10.73;5.93;;;;;;;;;;6284806;22;20405;-90
2021/03/06 08:32:01;;;;;;;7.20;6.00;;;;;;;;;;6285488;22;20456;-91
2021/03/06 08:34:28;;;;;;;6.40;5.60;;;;;;;;;;6284099;22;20423;-94
2021/03/06 08:37:13;;;;;;;8.47;6.20;;;;;;;;;;6285927;22;20412;-92
2021/03/06 08:39:39;;;;;;;7.80;4.73;;;;;;;;;;6285367;22;20474;-93
2021/03/06 08:42:05;;;;;;;9.30;5.23;;;;;;;;;;6286658;22;20504;-90
2021/03/06 08:44:31;;;;;;;6.63;4.40;;;;;;;;;;6285407;22;20408;-89
2021/03/06 08:46:58;;;;;;;5.67;5.00;;;;;;;;;;6288002;22;20421;-92
2021/03/06 08:49:25;;;;;;;16.40;4.73;;;;;;;;;;6286834;22;20412;-93
2021/03/06 08:51:51;;;;;;;13.63;5.13;;;;;;;;;;6285317;22;20445;-91
2021/03/06 08:54:17;;;;;;;5.33;3.97;;;;;;;;;;6284465;22;20921;-92
2021/03/06 08:56:43;;;;;;;7.53;3.37;;;;;;;;;;6285385;22;20409;-93
2021/03/06 08:59:10;;;;;;;4.53;3.10;;;;;;;;;;6286476;22;20473;-93
2021/03/06 09:01:36;;;;;;;5.70;3.50;;;;;;;;;;6286265;22;20439;-93
2021/03/06 09:04:04;;;;;;;5.93;3.90;;;;;;;;;;6258859;22;20405;-91
2021/03/06 09:06:36;;;;;;;5.70;3.60;;;;;;;;;;6288700;22;20413;-92
2021/03/06 09:09:05;;;;;;;4.13;3.03;;;;;;;;;;6286559;22;20409;-93
2021/03/06 09:11:32;;;;;;;4.13;3.40;;;;;;;;;;6286001;22;20452;-94
2021/03/06 09:13:58;;;;;;;4.47;3.40;;;;;;;;;;6287423;22;20914;-92
2021/03/06 09:16:24;;;;;;;2.97;2.67;;;;;;;;;;6285382;22;20413;-93
2021/03/06 09:18:51;;;;;;;3.83;2.70;;;;;;;;;;6286592;22;20404;-96
2021/03/06 09:21:20;;;;;;;4.10;3.20;;;;;;;;;;6284897;22;20436;-94
2021/03/06 09:23:47;;;;;;;9.03;3.30;;;;;;;;;;6285455;22;20435;-93
2021/03/06 09:26:16;;;;;;;7.87;3.27;;;;;;;;;;6285341;22;20424;-92
2021/03/06 09:28:43;;;;;;;5.40;2.60;;;;;;;;;;6286698;22;20405;-90
2021/03/06 09:31:11;;;;;;;5.70;2.00;;;;;;;;;;6283938;22;20449;-93
2021/03/06 09:33:38;;;;;;;8.50;2.70;;;;;;;;;;6285262;22;20413;-91
2021/03/06 09:36:05;;;;;;;4.20;2.43;;;;;;;;;;6283866;22;20465;-95
2021/03/06 09:38:32;;;;;;;4.97;3.00;;;;;;;;;;6284772;22;20412;-92
2021/03/06 09:40:59;;;;;;;8.60;2.70;;;;;;;;;;6285532;22;20409;-94
2021/03/06 09:43:29;;;;;;;2.70;2.30;;;;;;;;;;6287376;22;20424;-95
2021/03/06 09:45:57;;;;;;;2.33;2.13;;;;;;;;;;6284531;22;20427;-91
2021/03/06 09:48:24;;;;;;;5.33;2.77;;;;;;;;;;6282552;22;20411;-91
2021/03/06 09:50:52;;;;;;;3.10;2.00;;;;;;;;;;6285477;22;20448;-91
2021/03/06 09:53:20;;;;;;;3.53;2.60;;;;;;;;;;6285605;22;20408;-92
2021/03/06 09:55:47;;;;;;;6.83;2.70;;;;;;;;;;6285741;22;20427;-92
2021/03/06 09:58:20;;;;;;;1.80;1.70;;;;;;;;;;6286426;22;20905;-94
2021/03/06 10:00:46;;;;;;;3.67;1.80;;;;;;;;;;6290470;22;20400;-93
2021/03/06 10:03:12;;;;;;;2.57;2.07;;;;;;;;;;6284682;22;20790;-93
2021/03/06 10:05:38;;;;;;;2.23;2.03;;;;;;;;;;6289767;22;20485;-91
2021/03/06 10:08:05;;;;;;;2.63;1.70;;;;;;;;;;6288149;22;20752;-94
2021/03/06 10:10:31;;;;;;;3.97;2.37;;;;;;;;;;6288275;22;20471;-93
2021/03/06 10:13:00;;;;;;;3.93;2.90;;;;;;;;;;6286264;22;20401;-95
2021/03/06 10:15:26;;;;;;;3.70;2.40;;;;;;;;;;6289458;22;20413;-91
2021/03/06 10:17:52;;;;;;;2.30;2.10;;;;;;;;;;6287651;22;20412;-92
2021/03/06 10:20:27;;;;;;;2.57;2.23;;;;;;;;;;6288937;22;20424;-91
2021/03/06 10:22:53;;;;;;;2.40;1.90;;;;;;;;;;6288571;22;20418;-92
2021/03/06 10:25:23;;;;;;;4.00;2.47;;;;;;;;;;6288230;22;20416;-92
2021/03/06 10:27:50;;;;;;;4.53;3.30;;;;;;;;;;6286812;22;20420;-92
2021/03/06 10:30:17;;;;;;;3.07;2.40;;;;;;;;;;6287785;22;20441;-92
2021/03/06 10:32:46;;;;;;;4.27;2.60;;;;;;;;;;6286817;22;20416;-93
2021/03/06 10:35:31;;;;;;;4.57;3.00;;;;;;;;;;6287465;22;20420;-90
2021/03/06 10:37:57;;;;;;;2.50;2.30;;;;;;;;;;6288057;22;20407;-93
2021/03/06 10:40:38;;;;;;;5.00;2.93;;;;;;;;;;6287679;22;20412;-91
2021/03/06 10:43:04;;;;;;;3.47;2.57;;;;;;;;;;6287766;22;20428;-93
2021/03/06 10:45:31;;;;;;;6.53;3.50;;;;;;;;;;6285826;22;20405;-91
2021/03/06 10:47:58;;;;;;;4.53;3.10;;;;;;;;;;6289578;22;20405;-93
2021/03/06 10:50:25;;;;;;;6.83;4.17;;;;;;;;;;6288753;22;21029;-93
2021/03/06 10:52:51;;;;;;;3.57;2.93;;;;;;;;;;6287726;22;20409;-92
2021/03/06 10:55:18;;;;;;;9.23;4.47;;;;;;;;;;6286227;22;20914;-92
2021/03/06 10:57:50;;;;;;;3.93;3.00;;;;;;;;;;6288908;22;20412;-92
2021/03/06 11:00:20;;;;;;;4.30;3.87;;;;;;;;;;6286263;22;20413;-91
2021/03/06 11:02:56;;;;;;;4.53;3.40;;;;;;;;;;6287437;22;20404;-90
2021/03/06 11:05:24;;;;;;;4.17;3.43;;;;;;;;;;6287062;22;20457;-94
2021/03/06 11:07:50;;;;;;;7.43;3.73;;;;;;;;;;6291022;22;20780;-94
2021/03/06 11:10:18;;;;;;;3.90;3.50;;;;;;;;;;6287824;22;20456;-94
2021/03/06 11:13:00;;;;;;;3.30;3.00;;;;;;;;;;6288557;22;20409;-95
2021/03/06 11:15:27;;;;;;;4.07;3.00;;;;;;;;;;6283326;22;20443;-94
2021/03/06 11:17:55;;;;;;;3.83;2.97;;;;;;;;;;6288950;22;20400;-94
2021/03/06 11:20:23;;;;;;;4.30;3.90;;;;;;;;;;6288243;22;20469;-95
2021/03/06 11:22:49;;;;;;;4.80;3.33;;;;;;;;;;6289368;22;20413;-93
2021/03/06 11:25:17;;;;;;;3.70;2.40;;;;;;;;;;6289050;22;20417;-96
2021/03/06 11:27:47;;;;;;;3.73;3.00;;;;;;;;;;6288722;22;20413;-93
2021/03/06 11:30:15;;;;;;;3.37;2.33;;;;;;;;;;6284784;22;21328;-94
2021/03/06 11:32:41;;;;;;;3.27;2.80;;;;;;;;;;6288117;22;20405;-93
2021/03/06 11:35:08;;;;;;;4.10;3.57;;;;;;;;;;6288150;22;20977;-95
2021/03/06 11:37:35;;;;;;;8.50;3.93;;;;;;;;;;6286855;22;20416;-96
2021/03/06 11:40:01;;;;;;;7.80;3.73;;;;;;;;;;6288187;22;20428;-95
2021/03/06 11:42:27;;;;;;;8.43;4.87;;;;;;;;;;6286916;22;20412;-91
2021/03/06 11:44:57;;;;;;;10.93;2.90;;;;;;;;;;6291468;22;20404;-95
2021/03/06 11:47:23;;;;;;;4.50;3.50;;;;;;;;;;6282318;22;20412;-95
2021/03/06 11:49:50;;;;;;;6.27;4.07;;;;;;;;;;6288678;22;20903;-92
2021/03/06 11:52:16;;;;;;;14.07;4.07;;;;;;;;;;6287387;22;20449;-94
2021/03/06 11:54:43;;;;;;;3.63;3.30;;;;;;;;;;6285602;22;20442;-94
2021/03/06 11:57:10;;;;;;;6.37;4.20;;;;;;;;;;6289498;22;20472;-93
2021/03/06 11:59:36;;;;;;;4.43;3.67;;;;;;;;;;6289022;22;20411;-94
2021/03/06 12:02:02;;;;;;;4.20;3.80;;;;;;;;;;6284055;22;20412;-89
2021/03/06 12:04:30;;;;;;;5.40;3.30;;;;;;;;;;6283847;22;20411;-95
2021/03/06 12:06:57;;;;;;;4.70;4.13;;;;;;;;;;6255786;22;20408;-95
2021/03/06 12:09:23;;;;;;;5.63;3.93;;;;;;;;;;6286019;22;20444;-95
2021/03/06 12:11:50;;;;;;;3.53;3.23;;;;;;;;;;6283246;22;20453;-93
2021/03/06 12:14:16;;;;;;;4.70;3.97;;;;;;;;;;6287705;22;20465;-92
2021/03/06 12:16:42;;;;;;;4.43;3.90;;;;;;;;;;6288799;22;20409;-92
2021/03/06 12:19:08;;;;;;;5.60;4.70;;;;;;;;;;6287344;22;20454;-93
2021/03/06 12:21:34;;;;;;;5.60;4.13;;;;;;;;;;6287711;22;20776;-95
2021/03/06 12:24:01;;;;;;;4.43;3.70;;;;;;;;;;6285675;22;20413;-96
2021/03/06 12:26:27;;;;;;;8.10;4.03;;;;;;;;;;6286370;22;20413;-92
2021/03/06 12:28:54;;;;;;;6.00;4.10;;;;;;;;;;6288579;22;20477;-93
2021/03/06 12:31:22;;;;;;;4.40;3.77;;;;;;;;;;6288674;22;20499;-95
2021/03/06 12:33:48;;;;;;;5.80;4.20;;;;;;;;;;6287139;22;20401;-93
2021/03/06 12:36:15;;;;;;;4.67;3.50;;;;;;;;;;6289441;22;20415;-92
2021/03/06 12:38:41;;;;;;;4.67;3.40;;;;;;;;;;6284891;22;20469;-95
2021/03/06 12:41:07;;;;;;;7.50;4.53;;;;;;;;;;6287194;22;20418;-94
2021/03/06 12:43:33;;;;;;;4.50;4.10;;;;;;;;;;6284918;22;20401;-93
2021/03/06 12:46:03;;;;;;;4.97;4.30;;;;;;;;;;6287187;22;20405;-95
2021/03/06 12:48:29;;;;;;;6.63;3.97;;;;;;;;;;6287121;22;20415;-95
2021/03/06 12:50:55;;;;;;;5.50;4.67;;;;;;;;;;6289596;22;20441;-94
2021/03/06 12:53:22;;;;;;;4.40;4.00;;;;;;;;;;6288660;22;20401;-96
2021/03/06 12:55:48;;;;;;;5.90;5.10;;;;;;;;;;6286583;22;20421;-92
2021/03/06 12:58:14;;;;;;;6.13;5.50;;;;;;;;;;6289008;22;20409;-93
2021/03/06 13:00:40;;;;;;;7.40;4.77;;;;;;;;;;6285002;22;20412;-94
2021/03/06 13:03:07;;;;;;;5.93;5.10;;;;;;;;;;6284366;22;20412;-92
2021/03/06 13:05:33;;;;;;;5.43;4.77;;;;;;;;;;6287091;22;20526;-92
2021/03/06 13:07:59;;;;;;;7.73;5.60;;;;;;;;;;6287451;22;20411;-92
2021/03/06 13:10:35;;;;;;;9.13;6.60;;;;;;;;;;6284772;22;20413;-94
2021/03/06 13:13:01;;;;;;;6.60;5.43;;;;;;;;;;6287663;22;20483;-93
2021/03/06 13:15:27;;;;;;;6.90;5.40;;;;;;;;;;6286937;22;20425;-95
2021/03/06 13:17:53;;;;;;;6.30;5.50;;;;;;;;;;6286097;22;20443;-93
2021/03/06 13:20:23;;;;;;;5.87;5.13;;;;;;;;;;6284974;22;20401;-95
2021/03/06 13:22:50;;;;;;;7.57;5.50;;;;;;;;;;6286889;22;20453;-91
2021/03/06 13:25:16;;;;;;;6.20;4.80;;;;;;;;;;6284153;22;20431;-92
2021/03/06 13:27:42;;;;;;;7.37;5.40;;;;;;;;;;6287825;22;20417;-94
2021/03/06 13:30:09;;;;;;;6.73;4.70;;;;;;;;;;6285703;22;20413;-93
2021/03/06 13:32:35;;;;;;;7.30;5.43;;;;;;;;;;6288989;22;20462;-93
2021/03/06 13:35:04;;;;;;;6.60;5.13;;;;;;;;;;6290428;22;20404;-94
2021/03/06 13:37:31;;;;;;;6.60;4.80;;;;;;;;;;6289042;22;20400;-94
2021/03/06 13:39:57;;;;;;;6.37;5.40;;;;;;;;;;6287025;22;20902;-94
2021/03/06 13:42:23;;;;;;;7.57;5.27;;;;;;;;;;6286407;22;20473;-92
2021/03/06 13:44:50;;;;;;;7.30;5.20;;;;;;;;;;6288530;22;20431;-95
2021/03/06 13:47:16;;;;;;;10.27;4.87;;;;;;;;;;6289522;22;20401;-94
2021/03/06 13:49:42;;;;;;;6.13;4.77;;;;;;;;;;6288029;22;20405;-95
2021/03/06 13:52:08;;;;;;;7.00;5.27;;;;;;;;;;6289239;22;20475;-93
2021/03/06 13:54:35;;;;;;;9.53;5.37;;;;;;;;;;6289018;22;20417;-93
2021/03/06 13:57:02;;;;;;;6.07;5.40;;;;;;;;;;6286762;22;20417;-93
2021/03/06 13:59:28;;;;;;;10.60;5.70;;;;;;;;;;6287455;22;20412;-92
2021/03/06 14:01:54;;;;;;;4.23;3.83;;;;;;;;;;6286978;22;21107;-93
2021/03/06 14:04:20;;;;;;;8.33;5.70;;;;;;;;;;6285456;22;20439;-93
2021/03/06 14:06:48;;;;;;;10.53;5.20;;;;;;;;;;6284026;22;20752;-92
2021/03/06 14:09:14;;;;;;;5.67;5.10;;;;;;;;;;6286666;22;20409;-93
2021/03/06 14:11:41;;;;;;;7.93;5.07;;;;;;;;;;6285221;22;20454;-93
2021/03/06 14:14:07;;;;;;;9.63;5.50;;;;;;;;;;6288359;22;20409;-93
2021/03/06 14:16:34;;;;;;;6.27;5.10;;;;;;;;;;6287656;22;20417;-95
2021/03/06 14:19:00;;;;;;;6.57;5.93;;;;;;;;;;6286357;22;20416;-92
2021/03/06 14:21:26;;;;;;;6.57;5.53;;;;;;;;;;6287795;22;20417;-92
2021/03/06 14:23:53;;;;;;;5.97;5.03;;;;;;;;;;6284345;22;20432;-95
2021/03/06 14:26:20;;;;;;;6.97;5.10;;;;;;;;;;6284300;22;20510;-92
2021/03/06 14:28:47;;;;;;;7.00;5.07;;;;;;;;;;6282388;22;20436;-92